ASL124 LYBE-ULLI
Flight info
| Callsign | ASL124 |
|---|---|
| Flight time | 2h 51m |
| Altitude | 37000 |
| Route | TISAK DCT PARAK DCT KEKED DCT PODAN DCT BESOT DCT VABER DCT LISGO L71 LATLA/K0846F370 L71 GITIL N743 KOLET KOLET1B |
| Aircraft | A319/M-SDE3FGHIRWY/LB1 |
Departure
| Time | 2026-04-30 19:10 |
|---|---|
| Airport | Belgrade Nikola Tesla Airport (LYBE) |
Arrival
| Time | 2026-04-30 22:02 |
|---|---|
| Airport | Pulkovo Airport (ULLI) |
| Time | Latitude | Longitude | Altitude | Speed | Heading |
|---|---|---|---|---|---|
| 2026-04-30 18:52 | 44.82127 | 20.29194 | 306 ft | 0 kts | 212° |
| 2026-04-30 18:56 | 44.82127 | 20.29195 | 307 ft | 0 kts | 212° |
| 2026-04-30 19:01 | 44.82154 | 20.29218 | 307 ft | 2 kts | 212° |
| 2026-04-30 19:01 | 44.82174 | 20.29232 | 307 ft | 4 kts | 182° |
| 2026-04-30 19:02 | 44.82204 | 20.29200 | 305 ft | 0 kts | 122° |
| 2026-04-30 19:04 | 44.82198 | 20.29216 | 306 ft | 2 kts | 122° |
| 2026-04-30 19:04 | 44.82151 | 20.29321 | 307 ft | 13 kts | 122° |
| 2026-04-30 19:05 | 44.82095 | 20.29522 | 307 ft | 8 kts | 41° |
| 2026-04-30 19:05 | 44.82192 | 20.29616 | 309 ft | 11 kts | 45° |
| 2026-04-30 19:06 | 44.82097 | 20.29888 | 308 ft | 21 kts | 122° |
| 2026-04-30 19:06 | 44.82016 | 20.30071 | 306 ft | 23 kts | 122° |
| 2026-04-30 19:06 | 44.81837 | 20.30477 | 308 ft | 25 kts | 122° |
| 2026-04-30 19:07 | 44.81635 | 20.30928 | 305 ft | 28 kts | 122° |
| 2026-04-30 19:07 | 44.81537 | 20.31156 | 305 ft | 27 kts | 120° |
| 2026-04-30 19:08 | 44.81338 | 20.31591 | 306 ft | 24 kts | 122° |
| 2026-04-30 19:08 | 44.81175 | 20.31960 | 308 ft | 23 kts | 122° |
| 2026-04-30 19:08 | 44.81089 | 20.32153 | 305 ft | 19 kts | 122° |
| 2026-04-30 19:09 | 44.81113 | 20.32304 | 307 ft | 11 kts | 3° |
| 2026-04-30 19:09 | 44.81197 | 20.32303 | 308 ft | 13 kts | 357° |
| 2026-04-30 19:09 | 44.81267 | 20.32206 | 308 ft | 24 kts | 301° |
| 2026-04-30 19:10 | 44.81906 | 20.30781 | 307 ft | 143 kts | 302° |
| 2026-04-30 19:10 | 44.83055 | 20.28171 | 1450 ft | 156 kts | 310° |
| 2026-04-30 19:11 | 44.84002 | 20.27417 | 1699 ft | 170 kts | 355° |
| 2026-04-30 19:11 | 44.86658 | 20.27016 | 2344 ft | 214 kts | 353° |
| 2026-04-30 19:11 | 44.88155 | 20.26680 | 3120 ft | 220 kts | 353° |
| 2026-04-30 19:12 | 44.89680 | 20.26324 | 3982 ft | 224 kts | 353° |
| 2026-04-30 19:12 | 44.90704 | 20.26083 | 4563 ft | 227 kts | 353° |
| 2026-04-30 19:12 | 44.92274 | 20.25714 | 5438 ft | 231 kts | 353° |
| 2026-04-30 19:13 | 44.95542 | 20.24989 | 6803 ft | 251 kts | 355° |
| 2026-04-30 19:13 | 44.99141 | 20.24520 | 8314 ft | 264 kts | 357° |
| 2026-04-30 19:13 | 45.00986 | 20.24311 | 9173 ft | 267 kts | 357° |
| 2026-04-30 19:14 | 45.02848 | 20.24096 | 10045 ft | 270 kts | 356° |
| 2026-04-30 19:14 | 45.04771 | 20.23868 | 10512 ft | 288 kts | 356° |
| 2026-04-30 19:14 | 45.06850 | 20.23617 | 10728 ft | 311 kts | 356° |
| 2026-04-30 19:14 | 45.09083 | 20.23342 | 10875 ft | 334 kts | 356° |
| 2026-04-30 19:15 | 45.11456 | 20.23044 | 11218 ft | 347 kts | 356° |
| 2026-04-30 19:15 | 45.16331 | 20.22412 | 12490 ft | 355 kts | 355° |
| 2026-04-30 19:15 | 45.18805 | 20.22087 | 13156 ft | 358 kts | 355° |
| 2026-04-30 19:16 | 45.21298 | 20.21764 | 13815 ft | 362 kts | 355° |
| 2026-04-30 19:16 | 45.23817 | 20.21442 | 14422 ft | 365 kts | 355° |
| 2026-04-30 19:16 | 45.28918 | 20.20797 | 15585 ft | 371 kts | 355° |
| 2026-04-30 19:17 | 45.31462 | 20.20478 | 16172 ft | 373 kts | 355° |
| 2026-04-30 19:17 | 45.36716 | 20.19806 | 17355 ft | 380 kts | 355° |
| 2026-04-30 19:17 | 45.39324 | 20.19470 | 17936 ft | 383 kts | 355° |
| 2026-04-30 19:18 | 45.43796 | 20.18890 | 18833 ft | 388 kts | 355° |
| 2026-04-30 19:18 | 45.47382 | 20.18425 | 19458 ft | 392 kts | 355° |
| 2026-04-30 19:18 | 45.50109 | 20.18076 | 19925 ft | 395 kts | 355° |
| 2026-04-30 19:19 | 45.52856 | 20.17723 | 20403 ft | 398 kts | 355° |
| 2026-04-30 19:19 | 45.55623 | 20.17365 | 20862 ft | 400 kts | 355° |
| 2026-04-30 19:19 | 45.61207 | 20.16635 | 21752 ft | 405 kts | 355° |
| 2026-04-30 19:20 | 45.64031 | 20.16268 | 22170 ft | 408 kts | 355° |
| 2026-04-30 19:20 | 45.66867 | 20.15900 | 22583 ft | 410 kts | 355° |
| 2026-04-30 19:20 | 45.72589 | 20.15161 | 23388 ft | 415 kts | 355° |
| 2026-04-30 19:21 | 45.75474 | 20.14788 | 23785 ft | 418 kts | 355° |
| 2026-04-30 19:21 | 45.81302 | 20.14022 | 24476 ft | 422 kts | 355° |
| 2026-04-30 19:22 | 45.87133 | 20.13259 | 25135 ft | 426 kts | 355° |
| 2026-04-30 19:22 | 45.96053 | 20.12094 | 26100 ft | 432 kts | 355° |
| 2026-04-30 19:23 | 46.05087 | 20.10913 | 27027 ft | 437 kts | 355° |
| 2026-04-30 19:24 | 46.11172 | 20.10108 | 27597 ft | 441 kts | 355° |
| 2026-04-30 19:24 | 46.14231 | 20.09870 | 27931 ft | 441 kts | 2° |
| 2026-04-30 19:24 | 46.20222 | 20.11679 | 28761 ft | 440 kts | 14° |
| 2026-04-30 19:25 | 46.29011 | 20.15073 | 30092 ft | 436 kts | 14° |
| 2026-04-30 19:26 | 46.34853 | 20.17370 | 30855 ft | 434 kts | 14° |
| 2026-04-30 19:26 | 46.40679 | 20.19659 | 31528 ft | 434 kts | 14° |
| 2026-04-30 19:26 | 46.43593 | 20.20807 | 31876 ft | 433 kts | 14° |
| 2026-04-30 19:27 | 46.49400 | 20.23100 | 32562 ft | 432 kts | 14° |
| 2026-04-30 19:27 | 46.55209 | 20.25391 | 33232 ft | 432 kts | 14° |
| 2026-04-30 19:28 | 46.58117 | 20.26540 | 33565 ft | 432 kts | 14° |
| 2026-04-30 19:28 | 46.63874 | 20.28822 | 34247 ft | 431 kts | 15° |
| 2026-04-30 19:29 | 46.69658 | 20.31112 | 34808 ft | 430 kts | 14° |
| 2026-04-30 19:29 | 46.72551 | 20.32258 | 35069 ft | 431 kts | 14° |
| 2026-04-30 19:30 | 46.81225 | 20.35716 | 35803 ft | 431 kts | 15° |
| 2026-04-30 19:30 | 46.87009 | 20.38033 | 36299 ft | 431 kts | 15° |
| 2026-04-30 19:31 | 46.92796 | 20.40350 | 36753 ft | 431 kts | 15° |
| 2026-04-30 19:31 | 46.95697 | 20.41512 | 36970 ft | 431 kts | 15° |
| 2026-04-30 19:31 | 47.01488 | 20.43839 | 37315 ft | 432 kts | 15° |
| 2026-04-30 19:32 | 47.07259 | 20.46168 | 37347 ft | 433 kts | 15° |
| 2026-04-30 19:32 | 47.13062 | 20.48509 | 37355 ft | 433 kts | 15° |
| 2026-04-30 19:33 | 47.18868 | 20.50848 | 37352 ft | 433 kts | 15° |
| 2026-04-30 19:33 | 47.24672 | 20.53198 | 37349 ft | 432 kts | 15° |
| 2026-04-30 19:34 | 47.30463 | 20.55546 | 37350 ft | 432 kts | 15° |
| 2026-04-30 19:35 | 47.39143 | 20.59104 | 37349 ft | 432 kts | 15° |
| 2026-04-30 19:35 | 47.44934 | 20.61471 | 37353 ft | 431 kts | 15° |
| 2026-04-30 19:36 | 47.50713 | 20.63828 | 37357 ft | 431 kts | 15° |
| 2026-04-30 19:36 | 47.59328 | 20.67365 | 37358 ft | 430 kts | 15° |
| 2026-04-30 19:37 | 47.65096 | 20.69740 | 37365 ft | 430 kts | 15° |
| 2026-04-30 19:37 | 47.70854 | 20.72124 | 37362 ft | 429 kts | 15° |
| 2026-04-30 19:38 | 47.76611 | 20.74506 | 37356 ft | 429 kts | 15° |
| 2026-04-30 19:38 | 47.82324 | 20.76876 | 37356 ft | 429 kts | 15° |
| 2026-04-30 19:39 | 47.88068 | 20.79264 | 37361 ft | 428 kts | 15° |
| 2026-04-30 19:39 | 47.93802 | 20.81657 | 37360 ft | 428 kts | 15° |
| 2026-04-30 19:40 | 47.99534 | 20.84050 | 37357 ft | 427 kts | 15° |
| 2026-04-30 19:40 | 48.05259 | 20.86447 | 37355 ft | 427 kts | 15° |
| 2026-04-30 19:41 | 48.10986 | 20.88841 | 37359 ft | 426 kts | 16° |
| 2026-04-30 19:41 | 48.16648 | 20.91224 | 37363 ft | 425 kts | 16° |
| 2026-04-30 19:42 | 48.22335 | 20.93631 | 37365 ft | 424 kts | 16° |
| 2026-04-30 19:42 | 48.28016 | 20.96037 | 37369 ft | 424 kts | 16° |
| 2026-04-30 19:43 | 48.33695 | 20.98437 | 37368 ft | 423 kts | 16° |
| 2026-04-30 19:44 | 48.42193 | 21.02044 | 37363 ft | 423 kts | 16° |
| 2026-04-30 19:44 | 48.47858 | 21.04450 | 37369 ft | 423 kts | 16° |
| 2026-04-30 19:45 | 48.53510 | 21.06860 | 37371 ft | 422 kts | 16° |
| 2026-04-30 19:45 | 48.59159 | 21.09262 | 37369 ft | 421 kts | 16° |
| 2026-04-30 19:46 | 48.64811 | 21.11612 | 37368 ft | 421 kts | 16° |
| 2026-04-30 19:46 | 48.70426 | 21.13936 | 37370 ft | 421 kts | 16° |
| 2026-04-30 19:47 | 48.76072 | 21.16289 | 37372 ft | 420 kts | 16° |
| 2026-04-30 19:47 | 48.81704 | 21.18641 | 37373 ft | 420 kts | 16° |
| 2026-04-30 19:48 | 48.87327 | 21.21002 | 37371 ft | 419 kts | 16° |
| 2026-04-30 19:48 | 48.92957 | 21.23366 | 37378 ft | 419 kts | 16° |
| 2026-04-30 19:49 | 48.98535 | 21.25711 | 37380 ft | 418 kts | 16° |
| 2026-04-30 19:49 | 49.06414 | 21.29029 | 37379 ft | 418 kts | 16° |
| 2026-04-30 19:50 | 49.12030 | 21.31423 | 37381 ft | 420 kts | 16° |
| 2026-04-30 19:50 | 49.17649 | 21.33821 | 37370 ft | 418 kts | 16° |
| 2026-04-30 19:51 | 49.23247 | 21.36203 | 37371 ft | 418 kts | 16° |
| 2026-04-30 19:51 | 49.28852 | 21.38592 | 37374 ft | 418 kts | 16° |
| 2026-04-30 19:52 | 49.34448 | 21.40980 | 37379 ft | 418 kts | 16° |
| 2026-04-30 19:52 | 49.40016 | 21.43359 | 37368 ft | 417 kts | 17° |
| 2026-04-30 19:53 | 49.45612 | 21.45700 | 37386 ft | 416 kts | 15° |
| 2026-04-30 19:53 | 49.51211 | 21.47907 | 37390 ft | 415 kts | 15° |
| 2026-04-30 19:54 | 49.56803 | 21.50097 | 37393 ft | 414 kts | 15° |
| 2026-04-30 19:54 | 49.62380 | 21.52313 | 37393 ft | 413 kts | 15° |
| 2026-04-30 19:55 | 49.67944 | 21.54550 | 37392 ft | 413 kts | 16° |
| 2026-04-30 19:55 | 49.73504 | 21.56787 | 37391 ft | 413 kts | 16° |
| 2026-04-30 19:56 | 49.79061 | 21.59027 | 37394 ft | 412 kts | 16° |
| 2026-04-30 19:56 | 49.84578 | 21.61249 | 37391 ft | 412 kts | 16° |
| 2026-04-30 19:57 | 49.90121 | 21.63489 | 37390 ft | 411 kts | 16° |
| 2026-04-30 19:57 | 49.95655 | 21.65732 | 37383 ft | 411 kts | 16° |
| 2026-04-30 19:58 | 50.01181 | 21.67980 | 37379 ft | 411 kts | 16° |
| 2026-04-30 19:58 | 50.06705 | 21.70239 | 37380 ft | 410 kts | 16° |
| 2026-04-30 19:59 | 50.12225 | 21.72499 | 37376 ft | 410 kts | 16° |
| 2026-04-30 20:00 | 50.20496 | 21.75876 | 37372 ft | 409 kts | 16° |
| 2026-04-30 20:00 | 50.26000 | 21.78129 | 37381 ft | 409 kts | 16° |
| 2026-04-30 20:01 | 50.34245 | 21.81530 | 37382 ft | 408 kts | 16° |
| 2026-04-30 20:01 | 50.39696 | 21.83788 | 37384 ft | 407 kts | 16° |
| 2026-04-30 20:02 | 50.47916 | 21.87192 | 37387 ft | 407 kts | 16° |
| 2026-04-30 20:03 | 50.56121 | 21.90622 | 37387 ft | 407 kts | 16° |
| 2026-04-30 20:03 | 50.61589 | 21.92903 | 37365 ft | 406 kts | 17° |
| 2026-04-30 20:04 | 50.67051 | 21.95173 | 37377 ft | 406 kts | 17° |
| 2026-04-30 20:05 | 50.75186 | 21.98585 | 37389 ft | 404 kts | 17° |
| 2026-04-30 20:05 | 50.83336 | 22.02019 | 37397 ft | 404 kts | 17° |
| 2026-04-30 20:06 | 50.88764 | 22.04314 | 37399 ft | 403 kts | 17° |
| 2026-04-30 20:06 | 50.94180 | 22.06606 | 37396 ft | 403 kts | 17° |
| 2026-04-30 20:07 | 50.99593 | 22.08902 | 37395 ft | 402 kts | 17° |
| 2026-04-30 20:08 | 51.06793 | 22.11965 | 37389 ft | 402 kts | 17° |
| 2026-04-30 20:08 | 51.13074 | 22.14653 | 37391 ft | 402 kts | 17° |
| 2026-04-30 20:09 | 51.17601 | 22.16598 | 37397 ft | 402 kts | 17° |
| 2026-04-30 20:09 | 51.25659 | 22.20056 | 37398 ft | 402 kts | 17° |
| 2026-04-30 20:10 | 51.33766 | 22.23536 | 37396 ft | 402 kts | 17° |
| 2026-04-30 20:11 | 51.41857 | 22.27032 | 37390 ft | 401 kts | 17° |
| 2026-04-30 20:11 | 51.47250 | 22.29364 | 37388 ft | 401 kts | 17° |
| 2026-04-30 20:12 | 51.55329 | 22.32872 | 37387 ft | 401 kts | 17° |
| 2026-04-30 20:13 | 51.60673 | 22.35205 | 37384 ft | 400 kts | 17° |
| 2026-04-30 20:13 | 51.66049 | 22.37564 | 37388 ft | 400 kts | 17° |
| 2026-04-30 20:14 | 51.71420 | 22.39918 | 37387 ft | 400 kts | 17° |
| 2026-04-30 20:14 | 51.76785 | 22.42279 | 37388 ft | 400 kts | 17° |
| 2026-04-30 20:15 | 51.82157 | 22.44648 | 37383 ft | 400 kts | 17° |
| 2026-04-30 20:15 | 51.87519 | 22.47010 | 37350 ft | 399 kts | 17° |
| 2026-04-30 20:16 | 51.92866 | 22.49378 | 37386 ft | 398 kts | 18° |
| 2026-04-30 20:16 | 51.98197 | 22.51743 | 37394 ft | 397 kts | 18° |
| 2026-04-30 20:17 | 52.03512 | 22.54105 | 37397 ft | 396 kts | 18° |
| 2026-04-30 20:17 | 52.08817 | 22.56471 | 37396 ft | 395 kts | 18° |
| 2026-04-30 20:18 | 52.14116 | 22.58845 | 37398 ft | 395 kts | 18° |
| 2026-04-30 20:18 | 52.19374 | 22.61203 | 37396 ft | 394 kts | 18° |
| 2026-04-30 20:19 | 52.24661 | 22.63579 | 37391 ft | 394 kts | 18° |
| 2026-04-30 20:19 | 52.29940 | 22.65963 | 37390 ft | 393 kts | 18° |
| 2026-04-30 20:20 | 52.35207 | 22.68347 | 37393 ft | 392 kts | 18° |
| 2026-04-30 20:20 | 52.40458 | 22.70717 | 37392 ft | 391 kts | 18° |
| 2026-04-30 20:21 | 52.45696 | 22.73092 | 37387 ft | 390 kts | 18° |
| 2026-04-30 20:21 | 52.50928 | 22.75479 | 37384 ft | 390 kts | 18° |
| 2026-04-30 20:22 | 52.56150 | 22.77869 | 37390 ft | 389 kts | 18° |
| 2026-04-30 20:22 | 52.61371 | 22.80254 | 37388 ft | 389 kts | 18° |
| 2026-04-30 20:23 | 52.66582 | 22.82636 | 37381 ft | 389 kts | 18° |
| 2026-04-30 20:23 | 52.71796 | 22.85033 | 37381 ft | 389 kts | 18° |
| 2026-04-30 20:24 | 52.77009 | 22.87428 | 37379 ft | 388 kts | 18° |
| 2026-04-30 20:24 | 52.82210 | 22.89829 | 37379 ft | 388 kts | 18° |
| 2026-04-30 20:25 | 52.90012 | 22.93443 | 37376 ft | 388 kts | 18° |
| 2026-04-30 20:26 | 52.97879 | 22.96650 | 37373 ft | 389 kts | 14° |
| 2026-04-30 20:26 | 53.05809 | 22.99286 | 37377 ft | 388 kts | 14° |
| 2026-04-30 20:27 | 53.16368 | 23.03002 | 37358 ft | 387 kts | 15° |
| 2026-04-30 20:28 | 53.26866 | 23.06770 | 37381 ft | 385 kts | 14° |
| 2026-04-30 20:30 | 53.39956 | 23.11475 | 37375 ft | 384 kts | 15° |
| 2026-04-30 20:31 | 53.55637 | 23.17148 | 37366 ft | 384 kts | 14° |
| 2026-04-30 20:32 | 53.68652 | 23.21885 | 37369 ft | 383 kts | 15° |
| 2026-04-30 20:33 | 53.76470 | 23.24760 | 37364 ft | 383 kts | 15° |
| 2026-04-30 20:34 | 53.84297 | 23.27635 | 37362 ft | 383 kts | 15° |
| 2026-04-30 20:35 | 53.92123 | 23.30515 | 37360 ft | 383 kts | 15° |
| 2026-04-30 20:35 | 53.99940 | 23.33424 | 37361 ft | 383 kts | 15° |
| 2026-04-30 20:36 | 54.05152 | 23.35369 | 37365 ft | 383 kts | 15° |
| 2026-04-30 20:37 | 54.12938 | 23.38257 | 37364 ft | 383 kts | 14° |
| 2026-04-30 20:37 | 54.18133 | 23.40271 | 37314 ft | 382 kts | 19° |
| 2026-04-30 20:38 | 54.22858 | 23.44277 | 37331 ft | 380 kts | 31° |
| 2026-04-30 20:38 | 54.27360 | 23.49031 | 37390 ft | 380 kts | 31° |
| 2026-04-30 20:39 | 54.34123 | 23.56174 | 37371 ft | 380 kts | 31° |
| 2026-04-30 20:40 | 54.40879 | 23.63348 | 37363 ft | 380 kts | 31° |
| 2026-04-30 20:40 | 54.45383 | 23.68136 | 37361 ft | 380 kts | 31° |
| 2026-04-30 20:41 | 54.52130 | 23.75340 | 37361 ft | 380 kts | 31° |
| 2026-04-30 20:41 | 54.56595 | 23.80126 | 37360 ft | 380 kts | 31° |
| 2026-04-30 20:42 | 54.61082 | 23.84940 | 37354 ft | 380 kts | 31° |
| 2026-04-30 20:43 | 54.67812 | 23.92202 | 37343 ft | 380 kts | 31° |
| 2026-04-30 20:43 | 54.72294 | 23.97045 | 37352 ft | 380 kts | 31° |
| 2026-04-30 20:44 | 54.79015 | 24.04338 | 37341 ft | 380 kts | 31° |
| 2026-04-30 20:45 | 54.87935 | 24.14060 | 37344 ft | 380 kts | 31° |
| 2026-04-30 20:45 | 54.92402 | 24.18949 | 37346 ft | 380 kts | 31° |
| 2026-04-30 20:46 | 55.01335 | 24.28768 | 37347 ft | 379 kts | 31° |
| 2026-04-30 20:47 | 55.08032 | 24.36170 | 37336 ft | 379 kts | 31° |
| 2026-04-30 20:48 | 55.14718 | 24.43569 | 37322 ft | 379 kts | 31° |
| 2026-04-30 20:48 | 55.19170 | 24.48520 | 37326 ft | 379 kts | 31° |
| 2026-04-30 20:49 | 55.23624 | 24.53486 | 37317 ft | 379 kts | 31° |
| 2026-04-30 20:50 | 55.30291 | 24.60944 | 37313 ft | 379 kts | 31° |
| 2026-04-30 20:50 | 55.34736 | 24.65929 | 37311 ft | 379 kts | 31° |
| 2026-04-30 20:51 | 55.39169 | 24.70930 | 37305 ft | 379 kts | 31° |
| 2026-04-30 20:51 | 55.45788 | 24.78416 | 37301 ft | 379 kts | 31° |
| 2026-04-30 20:52 | 55.50228 | 24.83440 | 37303 ft | 379 kts | 31° |
| 2026-04-30 20:53 | 55.56874 | 24.90999 | 37297 ft | 379 kts | 31° |
| 2026-04-30 20:53 | 55.61300 | 24.96055 | 37294 ft | 379 kts | 31° |
| 2026-04-30 20:54 | 55.67938 | 25.03653 | 37292 ft | 379 kts | 31° |
| 2026-04-30 20:55 | 55.74567 | 25.11270 | 37293 ft | 379 kts | 31° |
| 2026-04-30 20:55 | 55.78239 | 25.15506 | 37291 ft | 379 kts | 31° |
| 2026-04-30 20:56 | 55.85584 | 25.23994 | 37288 ft | 379 kts | 31° |
| 2026-04-30 20:57 | 55.91458 | 25.30812 | 37293 ft | 378 kts | 31° |
| 2026-04-30 20:57 | 55.95862 | 25.35959 | 37289 ft | 378 kts | 31° |
| 2026-04-30 20:58 | 56.02466 | 25.43698 | 37289 ft | 378 kts | 31° |
| 2026-04-30 20:58 | 56.06866 | 25.48859 | 37284 ft | 378 kts | 31° |
| 2026-04-30 20:59 | 56.13455 | 25.56648 | 37282 ft | 379 kts | 34° |
| 2026-04-30 21:00 | 56.21354 | 25.69287 | 37284 ft | 380 kts | 39° |
| 2026-04-30 21:01 | 56.27199 | 25.78855 | 37284 ft | 381 kts | 39° |
| 2026-04-30 21:02 | 56.33062 | 25.88505 | 37289 ft | 381 kts | 39° |
| 2026-04-30 21:02 | 56.36977 | 25.94961 | 37285 ft | 381 kts | 39° |
| 2026-04-30 21:03 | 56.40882 | 26.01417 | 37278 ft | 381 kts | 39° |
| 2026-04-30 21:03 | 56.44786 | 26.07892 | 37276 ft | 381 kts | 39° |
| 2026-04-30 21:04 | 56.48694 | 26.14400 | 37276 ft | 381 kts | 39° |
| 2026-04-30 21:04 | 56.54538 | 26.24171 | 37279 ft | 381 kts | 39° |
| 2026-04-30 21:05 | 56.58434 | 26.30706 | 37275 ft | 381 kts | 39° |
| 2026-04-30 21:05 | 56.62302 | 26.37223 | 37275 ft | 381 kts | 39° |
| 2026-04-30 21:06 | 56.66198 | 26.43773 | 37273 ft | 381 kts | 39° |
| 2026-04-30 21:06 | 56.70088 | 26.50338 | 37270 ft | 382 kts | 39° |
| 2026-04-30 21:07 | 56.73973 | 26.56939 | 37325 ft | 382 kts | 39° |
| 2026-04-30 21:07 | 56.77839 | 26.63557 | 37271 ft | 380 kts | 39° |
| 2026-04-30 21:08 | 56.81705 | 26.70160 | 37266 ft | 381 kts | 39° |
| 2026-04-30 21:08 | 56.85576 | 26.76776 | 37263 ft | 381 kts | 39° |
| 2026-04-30 21:09 | 56.89424 | 26.83373 | 37263 ft | 381 kts | 39° |
| 2026-04-30 21:09 | 56.93290 | 26.90028 | 37262 ft | 381 kts | 39° |
| 2026-04-30 21:10 | 56.97148 | 26.96701 | 37280 ft | 381 kts | 39° |
| 2026-04-30 21:10 | 57.01002 | 27.03399 | 37272 ft | 381 kts | 39° |
| 2026-04-30 21:11 | 57.04855 | 27.10089 | 37269 ft | 381 kts | 39° |
| 2026-04-30 21:11 | 57.08712 | 27.16779 | 37269 ft | 381 kts | 39° |
| 2026-04-30 21:12 | 57.12560 | 27.23492 | 37269 ft | 381 kts | 40° |
| 2026-04-30 21:12 | 57.16401 | 27.30241 | 37270 ft | 382 kts | 40° |
| 2026-04-30 21:13 | 57.20238 | 27.37007 | 37274 ft | 382 kts | 39° |
| 2026-04-30 21:13 | 57.24076 | 27.43770 | 37273 ft | 381 kts | 39° |
| 2026-04-30 21:14 | 57.27904 | 27.50538 | 37270 ft | 381 kts | 39° |
| 2026-04-30 21:14 | 57.31725 | 27.57314 | 37266 ft | 381 kts | 40° |
| 2026-04-30 21:15 | 57.35538 | 27.64107 | 37260 ft | 380 kts | 40° |
| 2026-04-30 21:15 | 57.39486 | 27.70476 | 37256 ft | 377 kts | 32° |
| 2026-04-30 21:16 | 57.43759 | 27.76110 | 37247 ft | 377 kts | 32° |
| 2026-04-30 21:16 | 57.48038 | 27.81780 | 37252 ft | 377 kts | 32° |
| 2026-04-30 21:17 | 57.52312 | 27.87460 | 37244 ft | 377 kts | 32° |
| 2026-04-30 21:17 | 57.56582 | 27.93156 | 37255 ft | 377 kts | 32° |
| 2026-04-30 21:18 | 57.60853 | 27.98846 | 37244 ft | 377 kts | 32° |
| 2026-04-30 21:18 | 57.65124 | 28.04563 | 37254 ft | 378 kts | 32° |
| 2026-04-30 21:19 | 57.69390 | 28.10285 | 37238 ft | 378 kts | 32° |
| 2026-04-30 21:19 | 57.73664 | 28.16036 | 37217 ft | 378 kts | 32° |
| 2026-04-30 21:20 | 57.77928 | 28.21800 | 37216 ft | 378 kts | 32° |
| 2026-04-30 21:20 | 57.82200 | 28.27581 | 37226 ft | 379 kts | 33° |
| 2026-04-30 21:21 | 57.86438 | 28.33335 | 37226 ft | 379 kts | 32° |
| 2026-04-30 21:22 | 57.92854 | 28.42051 | 37220 ft | 379 kts | 32° |
| 2026-04-30 21:23 | 58.01397 | 28.53755 | 37225 ft | 380 kts | 33° |
| 2026-04-30 21:23 | 58.07799 | 28.62572 | 37229 ft | 380 kts | 33° |
| 2026-04-30 21:24 | 58.12063 | 28.68483 | 37234 ft | 380 kts | 33° |
| 2026-04-30 21:24 | 58.16336 | 28.74410 | 37230 ft | 381 kts | 33° |
| 2026-04-30 21:25 | 58.20955 | 28.79107 | 37221 ft | 376 kts | 17° |
| 2026-04-30 21:25 | 58.23481 | 28.80391 | 37221 ft | 376 kts | 14° |
| 2026-04-30 21:26 | 58.31063 | 28.84120 | 37219 ft | 377 kts | 14° |
| 2026-04-30 21:27 | 58.38674 | 28.87889 | 37216 ft | 377 kts | 14° |
| 2026-04-30 21:27 | 58.43754 | 28.90394 | 37218 ft | 377 kts | 14° |
| 2026-04-30 21:28 | 58.51377 | 28.94171 | 37218 ft | 377 kts | 14° |
| 2026-04-30 21:29 | 58.58997 | 28.97964 | 37224 ft | 377 kts | 14° |
| 2026-04-30 21:29 | 58.66641 | 29.01802 | 36296 ft | 383 kts | 14° |
| 2026-04-30 21:30 | 58.71742 | 29.04368 | 35214 ft | 378 kts | 15° |
| 2026-04-30 21:31 | 58.79235 | 29.08136 | 33566 ft | 365 kts | 15° |
| 2026-04-30 21:31 | 58.84147 | 29.10626 | 31862 ft | 366 kts | 15° |
| 2026-04-30 21:32 | 58.89106 | 29.13152 | 29914 ft | 371 kts | 15° |
| 2026-04-30 21:32 | 58.91615 | 29.14436 | 28736 ft | 375 kts | 15° |
| 2026-04-30 21:32 | 58.94151 | 29.15731 | 27493 ft | 379 kts | 14° |
| 2026-04-30 21:32 | 58.96680 | 29.17301 | 26107 ft | 385 kts | 20° |
| 2026-04-30 21:33 | 58.99114 | 29.19639 | 24631 ft | 398 kts | 27° |
| 2026-04-30 21:33 | 59.03399 | 29.26763 | 22409 ft | 409 kts | 43° |
| 2026-04-30 21:33 | 59.05193 | 29.30984 | 21538 ft | 400 kts | 44° |
| 2026-04-30 21:34 | 59.06965 | 29.35137 | 20556 ft | 396 kts | 44° |
| 2026-04-30 21:34 | 59.10433 | 29.43250 | 18842 ft | 385 kts | 45° |
| 2026-04-30 21:34 | 59.12139 | 29.47237 | 17988 ft | 381 kts | 45° |
| 2026-04-30 21:35 | 59.13836 | 29.51187 | 17336 ft | 379 kts | 45° |
| 2026-04-30 21:35 | 59.15519 | 29.55155 | 16204 ft | 381 kts | 45° |
| 2026-04-30 21:35 | 59.17191 | 29.59140 | 15340 ft | 378 kts | 46° |
| 2026-04-30 21:35 | 59.18835 | 29.63084 | 14600 ft | 372 kts | 46° |
| 2026-04-30 21:36 | 59.20459 | 29.66992 | 13824 ft | 370 kts | 46° |
| 2026-04-30 21:36 | 59.22073 | 29.70868 | 13072 ft | 365 kts | 46° |
| 2026-04-30 21:37 | 59.26749 | 29.82060 | 11443 ft | 336 kts | 46° |
| 2026-04-30 21:37 | 59.28179 | 29.85507 | 11313 ft | 317 kts | 46° |
| 2026-04-30 21:37 | 59.29534 | 29.88771 | 11186 ft | 301 kts | 46° |
| 2026-04-30 21:37 | 59.30823 | 29.91875 | 11045 ft | 287 kts | 45° |
| 2026-04-30 21:38 | 59.32054 | 29.94838 | 10926 ft | 275 kts | 45° |
| 2026-04-30 21:38 | 59.33240 | 29.97692 | 10741 ft | 267 kts | 45° |
| 2026-04-30 21:38 | 59.34402 | 30.00491 | 10503 ft | 263 kts | 45° |
| 2026-04-30 21:38 | 59.35552 | 30.03259 | 10257 ft | 261 kts | 45° |
| 2026-04-30 21:39 | 59.36695 | 30.06021 | 10074 ft | 260 kts | 46° |
| 2026-04-30 21:39 | 59.37823 | 30.08745 | 9944 ft | 261 kts | 46° |
| 2026-04-30 21:39 | 59.38965 | 30.11505 | 9805 ft | 261 kts | 46° |
| 2026-04-30 21:39 | 59.40104 | 30.14266 | 9669 ft | 260 kts | 46° |
| 2026-04-30 21:40 | 59.41241 | 30.17028 | 9536 ft | 260 kts | 46° |
| 2026-04-30 21:40 | 59.42374 | 30.19790 | 9400 ft | 259 kts | 46° |
| 2026-04-30 21:40 | 59.43505 | 30.22554 | 9231 ft | 259 kts | 46° |
| 2026-04-30 21:40 | 59.44687 | 30.25194 | 9046 ft | 256 kts | 41° |
| 2026-04-30 21:41 | 59.45943 | 30.27676 | 8895 ft | 256 kts | 40° |
| 2026-04-30 21:41 | 59.47213 | 30.30123 | 8770 ft | 255 kts | 40° |
| 2026-04-30 21:41 | 59.48485 | 30.32556 | 8636 ft | 255 kts | 39° |
| 2026-04-30 21:41 | 59.49756 | 30.34992 | 8377 ft | 254 kts | 40° |
| 2026-04-30 21:42 | 59.51016 | 30.37420 | 8035 ft | 253 kts | 40° |
| 2026-04-30 21:42 | 59.52273 | 30.39853 | 7684 ft | 253 kts | 40° |
| 2026-04-30 21:42 | 59.53525 | 30.42283 | 7330 ft | 252 kts | 40° |
| 2026-04-30 21:42 | 59.54772 | 30.44709 | 6976 ft | 252 kts | 40° |
| 2026-04-30 21:43 | 59.56017 | 30.47131 | 6633 ft | 251 kts | 41° |
| 2026-04-30 21:43 | 59.56841 | 30.48731 | 6374 ft | 251 kts | 41° |
| 2026-04-30 21:43 | 59.58491 | 30.51946 | 5900 ft | 251 kts | 41° |
| 2026-04-30 21:43 | 59.59730 | 30.54371 | 5547 ft | 250 kts | 41° |
| 2026-04-30 21:44 | 59.60964 | 30.56794 | 5199 ft | 249 kts | 41° |
| 2026-04-30 21:44 | 59.62193 | 30.59205 | 4845 ft | 249 kts | 41° |
| 2026-04-30 21:44 | 59.63429 | 30.61625 | 4382 ft | 252 kts | 42° |
| 2026-04-30 21:44 | 59.64684 | 30.64055 | 3983 ft | 252 kts | 39° |
| 2026-04-30 21:45 | 59.66192 | 30.65683 | 3622 ft | 247 kts | 12° |
| 2026-04-30 21:45 | 59.67885 | 30.65649 | 3366 ft | 244 kts | 345° |
| 2026-04-30 21:45 | 59.69388 | 30.64109 | 3221 ft | 246 kts | 326° |
| 2026-04-30 21:45 | 59.70319 | 30.62824 | 3085 ft | 246 kts | 326° |
| 2026-04-30 21:46 | 59.71705 | 30.60893 | 2915 ft | 240 kts | 326° |
| 2026-04-30 21:46 | 59.73043 | 30.59024 | 2742 ft | 232 kts | 326° |
| 2026-04-30 21:46 | 59.74614 | 30.56455 | 2523 ft | 211 kts | 308° |
| 2026-04-30 21:46 | 59.75190 | 30.53913 | 2381 ft | 196 kts | 289° |
| 2026-04-30 21:47 | 59.75430 | 30.52256 | 2336 ft | 180 kts | 289° |
| 2026-04-30 21:47 | 59.75763 | 30.50021 | 2202 ft | 155 kts | 290° |
| 2026-04-30 21:47 | 59.76050 | 30.48115 | 2131 ft | 138 kts | 291° |
| 2026-04-30 21:47 | 59.76319 | 30.46341 | 1994 ft | 132 kts | 291° |
| 2026-04-30 21:48 | 59.76579 | 30.44620 | 1851 ft | 129 kts | 291° |
| 2026-04-30 21:48 | 59.76835 | 30.42924 | 1687 ft | 128 kts | 290° |
| 2026-04-30 21:48 | 59.77089 | 30.41241 | 1504 ft | 127 kts | 290° |
| 2026-04-30 21:48 | 59.77341 | 30.39568 | 1326 ft | 126 kts | 289° |
| 2026-04-30 21:49 | 59.77591 | 30.37906 | 1138 ft | 126 kts | 288° |
| 2026-04-30 21:49 | 59.77837 | 30.36263 | 959 ft | 126 kts | 287° |
| 2026-04-30 21:49 | 59.78087 | 30.34598 | 782 ft | 126 kts | 286° |
| 2026-04-30 21:49 | 59.78338 | 30.32924 | 613 ft | 126 kts | 286° |
| 2026-04-30 21:50 | 59.78589 | 30.31254 | 450 ft | 126 kts | 286° |
| 2026-04-30 21:50 | 59.78840 | 30.29587 | 282 ft | 126 kts | 286° |
| 2026-04-30 21:50 | 59.79091 | 30.27899 | 302 ft | 132 kts | 286° |
| 2026-04-30 21:50 | 59.79351 | 30.26132 | 1040 ft | 135 kts | 287° |
| 2026-04-30 21:51 | 59.79596 | 30.24278 | 1607 ft | 147 kts | 286° |
| 2026-04-30 21:51 | 59.79836 | 30.22156 | 1882 ft | 168 kts | 285° |
| 2026-04-30 21:51 | 59.80096 | 30.19756 | 2236 ft | 187 kts | 285° |
| 2026-04-30 21:51 | 59.80170 | 30.17059 | 2479 ft | 212 kts | 262° |
| 2026-04-30 21:52 | 59.79557 | 30.14206 | 2544 ft | 247 kts | 244° |
| 2026-04-30 21:52 | 59.78682 | 30.11144 | 2534 ft | 259 kts | 242° |
| 2026-04-30 21:52 | 59.77655 | 30.08193 | 2534 ft | 263 kts | 225° |
| 2026-04-30 21:52 | 59.76065 | 30.06386 | 2538 ft | 267 kts | 195° |
| 2026-04-30 21:53 | 59.74222 | 30.06317 | 2538 ft | 267 kts | 165° |
| 2026-04-30 21:53 | 59.72604 | 30.08004 | 2535 ft | 264 kts | 135° |
| 2026-04-30 21:53 | 59.71598 | 30.10960 | 2539 ft | 260 kts | 110° |
| 2026-04-30 21:53 | 59.70929 | 30.14283 | 2537 ft | 259 kts | 107° |
| 2026-04-30 21:54 | 59.70310 | 30.17588 | 2536 ft | 258 kts | 107° |
| 2026-04-30 21:54 | 59.69685 | 30.20976 | 2536 ft | 258 kts | 107° |
| 2026-04-30 21:54 | 59.69079 | 30.24280 | 2536 ft | 258 kts | 107° |
| 2026-04-30 21:54 | 59.68468 | 30.27624 | 2535 ft | 258 kts | 107° |
| 2026-04-30 21:55 | 59.67857 | 30.30972 | 2535 ft | 258 kts | 107° |
| 2026-04-30 21:55 | 59.67248 | 30.34318 | 2536 ft | 258 kts | 107° |
| 2026-04-30 21:55 | 59.66639 | 30.37667 | 2534 ft | 258 kts | 107° |
| 2026-04-30 21:55 | 59.66031 | 30.41006 | 2536 ft | 258 kts | 107° |
| 2026-04-30 21:56 | 59.65423 | 30.44348 | 2535 ft | 258 kts | 107° |
| 2026-04-30 21:56 | 59.64838 | 30.47663 | 2532 ft | 257 kts | 103° |
| 2026-04-30 21:56 | 59.64720 | 30.51110 | 2531 ft | 245 kts | 78° |
| 2026-04-30 21:56 | 59.65269 | 30.54118 | 2532 ft | 224 kts | 55° |
| 2026-04-30 21:57 | 59.66271 | 30.56298 | 2530 ft | 206 kts | 34° |
| 2026-04-30 21:57 | 59.67510 | 30.57549 | 2533 ft | 199 kts | 15° |
| 2026-04-30 21:57 | 59.68869 | 30.57892 | 2533 ft | 197 kts | 356° |
| 2026-04-30 21:57 | 59.70243 | 30.57585 | 2538 ft | 202 kts | 353° |
| 2026-04-30 21:58 | 59.71664 | 30.57256 | 2537 ft | 207 kts | 353° |
| 2026-04-30 21:58 | 59.73097 | 30.56923 | 2536 ft | 208 kts | 352° |
| 2026-04-30 21:58 | 59.74421 | 30.55816 | 2534 ft | 209 kts | 322° |
| 2026-04-30 21:58 | 59.75244 | 30.53589 | 2404 ft | 202 kts | 292° |
| 2026-04-30 21:59 | 59.75638 | 30.50958 | 2240 ft | 195 kts | 289° |
| 2026-04-30 21:59 | 59.76009 | 30.48439 | 2138 ft | 187 kts | 289° |
| 2026-04-30 21:59 | 59.76376 | 30.45978 | 1984 ft | 185 kts | 289° |
| 2026-04-30 22:00 | 59.77081 | 30.41292 | 1498 ft | 167 kts | 289° |
| 2026-04-30 22:00 | 59.77664 | 30.37412 | 1073 ft | 132 kts | 288° |
| 2026-04-30 22:00 | 59.77921 | 30.35701 | 892 ft | 127 kts | 287° |
| 2026-04-30 22:01 | 59.78170 | 30.34043 | 722 ft | 126 kts | 286° |
| 2026-04-30 22:01 | 59.78422 | 30.32369 | 564 ft | 126 kts | 285° |
| 2026-04-30 22:01 | 59.78675 | 30.30705 | 367 ft | 126 kts | 287° |
| 2026-04-30 22:01 | 59.78923 | 30.29038 | 215 ft | 125 kts | 285° |
| 2026-04-30 22:02 | 59.79160 | 30.27404 | 86 ft | 112 kts | 287° |
| 2026-04-30 22:02 | 59.79342 | 30.26192 | 84 ft | 68 kts | 286° |
| 2026-04-30 22:02 | 59.79420 | 30.25657 | 83 ft | 25 kts | 287° |
| 2026-04-30 22:02 | 59.79488 | 30.25534 | 83 ft | 14 kts | 73° |
| 2026-04-30 22:03 | 59.79515 | 30.25745 | 86 ft | 18 kts | 74° |
| 2026-04-30 22:03 | 59.79546 | 30.26006 | 85 ft | 21 kts | 81° |
| 2026-04-30 22:03 | 59.79510 | 30.26264 | 85 ft | 14 kts | 107° |
| 2026-04-30 22:03 | 59.79534 | 30.26370 | 82 ft | 11 kts | 21° |
| 2026-04-30 22:04 | 59.79622 | 30.26422 | 81 ft | 15 kts | 16° |
| 2026-04-30 22:04 | 59.79729 | 30.26486 | 81 ft | 16 kts | 17° |
| 2026-04-30 22:04 | 59.79956 | 30.26619 | 83 ft | 19 kts | 18° |
| 2026-04-30 22:05 | 59.80066 | 30.26684 | 83 ft | 16 kts | 16° |
| 2026-04-30 22:05 | 59.80156 | 30.26736 | 83 ft | 13 kts | 16° |
| 2026-04-30 22:05 | 59.80217 | 30.26791 | 82 ft | 8 kts | 57° |
| 2026-04-30 22:05 | 59.80208 | 30.26880 | 82 ft | 1 kts | 106° |
| 2026-04-30 22:06 | 59.80207 | 30.26887 | 81 ft | 0 kts | 106° |